Aspen, CO

3:13 AM MST on December 19, 2014 (GMT -0700)
Tiehack Aspen Colorado | Change Station
CLOSE
Current Station
Personal Weather Station
Location: Aspen, CO
Elevation: 8500 ft
Nearby Weather Stations
Active Advisory: Special Statement Active Notice: Local Storm Report

Elev 8500 ft 39.20 °N, 106.85 °W | Updated 35 seconds ago

Overcast
Overcast
21.0 °F
Feels Like 21 °F
N
0.0
Wind Variable Wind from WSW
Gusts 0.0 mph

Today
High -- | Low -- °F
--% Chance of Precip.
Yesterday
High -- | Low -- °F
Precip. -- in
7:22 AM 4:46 PM
Waning Crescent, 9% visible
Pressure 30.14 in
Visibility 9.0 miles
Clouds Few 2200 ft
Scattered Clouds 2800 ft
Overcast 3300 ft
Windchill 21 °F
Dew Point 21 °F
Humidity 100%
Rainfall 0.00 in
Snow Depth Not available.
UV 0 out of 12
Pollen .10 out of 12
Air Quality Not available.
Flu Activity Not available.
METAR KASE 190953Z AUTO 17003KT 9SM -SN FEW022 SCT028 OVC033 M07/M08 A3013 RMK AO2 SLP205 P0001 T10671078

More Conditions Fewer Conditions

Pressure 30.14 in
Visibility 9.0 miles
Clouds Few 2200 ft
Scattered Clouds 2800 ft
Overcast 3300 ft
Windchill 21 °F
Dew Point 21 °F
Humidity 100%
Rainfall 0.00 in
Snow Depth Not available.
UV 0 out of 12
Pollen .10 out of 12
Air Quality Not available.
Flu Activity Not available.
METAR KASE 190953Z AUTO 17003KT 9SM -SN FEW022 SCT028 OVC033 M07/M08 A3013 RMK AO2 SLP205 P0001 T10671078

More Conditions Fewer Conditions

10-Day Weather Forecast

Almanac

Astronomy

Dec. 19, 2014 Rise Set
Actual Time
Civil Twilight
Nautical Twilight
Astronomical Twilight
Moon
Length of Visible Light
Length of Day
Tomorrow will be .
, % of the Moon is Illuminated

Today's Extremes

State Highs State Lows

Community

WunderPhotos

Upload Photos

1,778,966 photos uploaded!

WunderBlogs® & News

Nearby

Air Quality

  Air Quality AQ Index Pollutant
Not available.

Snow Depth

Station Depth Elevation

Earthquake Activity

City Distance Mag. Time & Date
Minimum magnitude displayed is 2.5.

Coastal Water Temperatures

Place Temperature

Nearby Weather Stations